createdAt,value
2018-05-29T00:01:56.477Z,99.90
2018-05-29T00:04:23.695Z,99.90
2018-05-29T00:06:50.582Z,99.90
2018-05-29T00:09:24.389Z,99.90
2018-05-29T00:11:51.956Z,99.90
2018-05-29T00:14:18.803Z,99.90
2018-05-29T00:16:45.656Z,99.90
2018-05-29T00:19:12.604Z,99.90
2018-05-29T00:21:39.452Z,99.90
2018-05-29T00:24:06.712Z,99.90
2018-05-29T00:26:33.663Z,99.90
2018-05-29T00:29:00.611Z,99.90
2018-05-29T00:31:27.567Z,99.90
2018-05-29T00:33:54.513Z,99.90
2018-05-29T00:36:21.260Z,99.90
2018-05-29T00:38:48.213Z,99.90
2018-05-29T00:41:15.060Z,99.90
2018-05-29T00:43:42.009Z,99.90
2018-05-29T00:46:08.962Z,99.90
2018-05-29T00:48:36.321Z,99.90
2018-05-29T00:51:03.282Z,99.90
2018-05-29T00:53:30.429Z,99.90
2018-05-29T00:55:57.379Z,99.90
2018-05-29T00:58:24.333Z,99.90
2018-05-29T01:00:51.178Z,99.90
2018-05-29T01:03:18.027Z,99.90
2018-05-29T01:05:44.878Z,99.90
2018-05-29T01:08:11.829Z,99.90
2018-05-29T01:10:38.677Z,99.90
2018-05-29T01:13:06.447Z,99.90
2018-05-29T01:15:33.192Z,99.90
2018-05-29T01:18:00.042Z,99.90
2018-05-29T01:20:27.813Z,99.90
2018-05-29T01:22:54.558Z,99.90
2018-05-29T01:25:21.405Z,99.90
2018-05-29T01:27:48.253Z,99.90
2018-05-29T01:30:15.203Z,99.90
2018-05-29T01:32:42.053Z,99.90
2018-05-29T01:35:09.109Z,99.90
2018-05-29T01:37:36.365Z,99.90
2018-05-29T01:40:03.521Z,99.90
2018-05-29T01:42:30.368Z,99.90
2018-05-29T01:44:57.424Z,99.90
2018-05-29T01:47:24.783Z,99.90
2018-05-29T01:49:51.733Z,99.90
2018-05-29T01:52:18.686Z,99.90
2018-05-29T01:54:45.435Z,99.90
2018-05-29T01:57:12.279Z,99.90
2018-05-29T01:59:39.438Z,99.90
2018-05-29T02:02:06.287Z,99.90
2018-05-29T02:04:33.178Z,99.90
2018-05-29T02:07:00.085Z,99.90
2018-05-29T02:09:27.035Z,99.90
2018-05-29T02:11:54.090Z,99.90
2018-05-29T02:14:21.860Z,99.90
2018-05-29T02:16:48.707Z,99.90
2018-05-29T02:19:15.554Z,99.90
2018-05-29T02:21:42.915Z,99.90
2018-05-29T02:24:09.660Z,99.90
2018-05-29T02:26:36.517Z,99.90
2018-05-29T02:29:03.768Z,99.90
2018-05-29T02:31:30.717Z,99.90
2018-05-29T02:33:57.675Z,99.90
2018-05-29T02:36:24.620Z,99.90
2018-05-29T02:38:51.468Z,99.90
2018-05-29T02:41:18.421Z,99.90
2018-05-29T02:43:45.165Z,99.90
2018-05-29T02:46:12.015Z,99.90
2018-05-29T02:48:38.873Z,99.90
2018-05-29T02:51:05.713Z,99.90
2018-05-29T02:53:32.665Z,99.90
2018-05-29T02:55:59.408Z,99.90
2018-05-29T02:58:26.257Z,99.90
2018-05-29T03:00:53.210Z,99.90
2018-05-29T03:03:19.956Z,99.90
2018-05-29T03:05:47.215Z,99.90
2018-05-29T03:08:14.163Z,99.90
2018-05-29T03:10:41.424Z,99.90
2018-05-29T03:13:08.374Z,99.90
2018-05-29T03:15:36.042Z,99.90
2018-05-29T03:18:02.991Z,99.90
2018-05-29T03:20:29.843Z,99.90
2018-05-29T03:22:56.793Z,99.90
2018-05-29T03:25:23.643Z,99.90
2018-05-29T03:27:50.491Z,99.90
2018-05-29T03:30:17.441Z,99.90
2018-05-29T03:32:44.288Z,99.90
2018-05-29T03:35:11.240Z,99.90
2018-05-29T03:37:37.988Z,99.90
2018-05-29T03:40:04.938Z,99.90
2018-05-29T03:42:31.785Z,99.90
2018-05-29T03:44:58.740Z,99.90
2018-05-29T03:47:25.586Z,99.90
2018-05-29T03:49:52.534Z,99.90
2018-05-29T03:52:19.693Z,99.90
2018-05-29T03:54:46.641Z,99.90
2018-05-29T03:57:13.491Z,99.90
2018-05-29T03:59:40.442Z,99.90
2018-05-29T04:02:07.396Z,99.90
2018-05-29T04:04:34.243Z,99.90
2018-05-29T04:07:01.090Z,99.90
2018-05-29T04:09:27.967Z,99.90
2018-05-29T04:11:56.323Z,99.90
2018-05-29T04:14:23.990Z,99.90
2018-05-29T04:16:51.555Z,99.90
2018-05-29T04:19:18.713Z,99.90
2018-05-29T04:21:45.763Z,99.90
2018-05-29T04:24:12.713Z,99.90
2018-05-29T04:26:39.561Z,99.00
2018-05-29T04:29:07.248Z,85.30
2018-05-29T04:31:34.180Z,85.10
2018-05-29T04:34:01.031Z,73.80
2018-05-29T04:36:28.188Z,66.70
2018-05-29T04:38:55.136Z,60.90
2018-05-29T04:41:22.087Z,56.50
2018-05-29T04:43:49.041Z,53.80
2018-05-29T04:46:16.017Z,52.20
2018-05-29T04:48:42.827Z,50.30
2018-05-29T04:51:09.685Z,48.80
2018-05-29T04:53:36.637Z,47.30
2018-05-29T04:56:03.588Z,46.30
2018-05-29T04:58:30.541Z,45.40
2018-05-29T05:00:57.389Z,43.90
2018-05-29T05:03:24.343Z,43.90
2018-05-29T05:05:51.290Z,43.30
2018-05-29T05:08:19.546Z,42.40
2018-05-29T05:10:47.340Z,40.60
2018-05-29T05:13:14.400Z,40.60
2018-05-29T05:15:41.140Z,41.00
2018-05-29T05:18:08.910Z,39.80
2018-05-29T05:20:35.861Z,39.80
2018-05-29T05:23:02.914Z,40.20
2018-05-29T05:25:29.866Z,39.90
2018-05-29T05:27:56.817Z,40.00
2018-05-29T05:30:23.769Z,39.70
2018-05-29T05:32:51.069Z,38.40
2018-05-29T05:35:17.983Z,37.60
2018-05-29T05:37:44.933Z,38.20
2018-05-29T05:40:11.775Z,36.40
2018-05-29T05:42:38.729Z,36.50
2018-05-29T05:45:05.502Z,37.10
2018-05-29T05:47:32.321Z,36.80
2018-05-29T05:49:59.169Z,36.80
2018-05-29T05:52:26.120Z,37.10
2018-05-29T05:54:53.073Z,38.00
2018-05-29T05:57:20.031Z,38.10
2018-05-29T05:59:46.975Z,39.40
2018-05-29T06:02:13.924Z,40.10
2018-05-29T06:04:40.876Z,38.10
2018-05-29T06:07:07.828Z,38.00
2018-05-29T06:09:34.675Z,37.80
2018-05-29T06:12:01.424Z,36.60
2018-05-29T06:14:28.371Z,35.30
2018-05-29T06:16:55.223Z,37.50
2018-05-29T06:19:22.995Z,36.10
2018-05-29T06:21:49.843Z,36.20
2018-05-29T06:24:17.208Z,35.80
2018-05-29T06:26:44.154Z,34.20
2018-05-29T06:29:10.999Z,33.30
2018-05-29T06:31:37.952Z,32.40
2018-05-29T06:34:04.798Z,32.10
2018-05-29T06:36:31.955Z,34.00
2018-05-29T06:38:58.907Z,34.70
2018-05-29T06:41:25.858Z,33.00
2018-05-29T06:43:53.116Z,33.40
2018-05-29T06:46:20.067Z,33.50
2018-05-29T06:48:47.016Z,35.60
2018-05-29T06:51:14.170Z,36.80
2018-05-29T06:53:41.123Z,38.30
2018-05-29T06:56:07.973Z,37.20
2018-05-29T06:58:34.924Z,35.20
2018-05-29T07:01:01.770Z,34.00
2018-05-29T07:03:28.620Z,33.80
2018-05-29T07:05:55.471Z,34.60
2018-05-29T07:08:22.421Z,34.30
2018-05-29T07:10:49.375Z,34.30
2018-05-29T07:13:16.320Z,34.00
2018-05-29T07:15:43.273Z,33.60
2018-05-29T07:18:10.119Z,34.50
2018-05-29T07:20:37.892Z,33.50
2018-05-29T07:23:04.740Z,33.40
2018-05-29T07:25:32.100Z,32.70
2018-05-29T07:27:59.050Z,32.90
2018-05-29T07:30:26.000Z,33.50
2018-05-29T07:32:52.953Z,32.80
2018-05-29T07:35:19.903Z,32.00
2018-05-29T07:37:46.651Z,31.70
2018-05-29T07:40:13.599Z,29.70
2018-05-29T07:42:40.347Z,30.70
2018-05-29T07:45:07.308Z,31.70
2018-05-29T07:47:34.251Z,31.90
2018-05-29T07:50:00.996Z,33.00
2018-05-29T07:52:27.843Z,32.20
2018-05-29T07:54:54.588Z,31.70
2018-05-29T07:57:21.439Z,29.20
2018-05-29T07:59:48.391Z,30.60
2018-05-29T08:02:15.237Z,30.70
2018-05-29T08:04:42.187Z,29.20
2018-05-29T08:07:09.142Z,29.40
2018-05-29T08:09:35.885Z,29.60
2018-05-29T08:12:02.736Z,29.30
2018-05-29T08:14:29.686Z,30.00
2018-05-29T08:16:56.535Z,28.10
2018-05-29T08:19:23.488Z,28.60
2018-05-29T08:21:51.254Z,28.90
2018-05-29T08:24:18.204Z,28.80
2018-05-29T08:26:45.053Z,28.40
2018-05-29T08:29:11.800Z,28.30
2018-05-29T08:31:38.751Z,28.10
2018-05-29T08:34:05.702Z,28.60
2018-05-29T08:36:32.550Z,29.40
2018-05-29T08:38:59.400Z,30.80
2018-05-29T08:41:26.254Z,31.40
2018-05-29T08:43:53.612Z,34.60
2018-05-29T08:46:20.613Z,31.70
2018-05-29T08:48:47.407Z,32.80
2018-05-29T08:51:14.157Z,33.40
2018-05-29T08:53:41.107Z,32.10
2018-05-29T08:56:08.059Z,34.90
2018-05-29T08:58:35.007Z,36.40
2018-05-29T09:01:01.961Z,35.70
2018-05-29T09:03:28.912Z,35.60
2018-05-29T09:05:56.993Z,36.80
2018-05-29T09:08:24.039Z,37.20
2018-05-29T09:10:50.785Z,36.80
2018-05-29T09:13:17.634Z,36.20
2018-05-29T09:15:44.482Z,37.30
2018-05-29T09:18:12.054Z,37.90
2018-05-29T09:20:39.000Z,37.60
2018-05-29T09:23:06.665Z,37.60
2018-05-29T09:25:33.523Z,37.60
2018-05-29T09:28:00.672Z,40.00
2018-05-29T09:30:27.554Z,38.70
2018-05-29T09:32:54.470Z,39.20
2018-05-29T09:35:21.367Z,39.10
2018-05-29T09:37:48.167Z,38.80
2018-05-29T09:40:22.133Z,38.30
2018-05-29T09:42:49.437Z,39.20
2018-05-29T09:45:16.182Z,39.70
2018-05-29T09:47:43.136Z,39.70
2018-05-29T09:50:09.983Z,41.20
2018-05-29T09:52:36.832Z,41.30
2018-05-29T09:55:03.884Z,41.00
2018-05-29T09:57:30.839Z,41.60
2018-05-29T09:59:57.582Z,42.20
2018-05-29T10:02:24.535Z,42.00
2018-05-29T10:04:51.483Z,43.40
2018-05-29T10:07:25.496Z,42.40
2018-05-29T10:09:52.344Z,42.00
2018-05-29T10:12:19.298Z,43.70
2018-05-29T10:14:46.144Z,43.00
2018-05-29T10:17:13.094Z,42.90
2018-05-29T10:19:40.048Z,44.60
2018-05-29T10:22:07.000Z,43.70
2018-05-29T10:24:34.774Z,45.60
2018-05-29T10:27:01.720Z,45.60
2018-05-29T10:29:28.672Z,46.40
2018-05-29T10:31:55.517Z,46.00
2018-05-29T10:34:22.474Z,46.50
2018-05-29T10:36:49.422Z,46.00
2018-05-29T10:39:16.270Z,46.70
2018-05-29T10:41:43.326Z,48.70
2018-05-29T10:44:10.174Z,48.20
2018-05-29T10:46:37.121Z,47.00
2018-05-29T10:49:03.973Z,46.40
2018-05-29T10:51:30.920Z,45.40
2018-05-29T10:53:58.894Z,46.20
2018-05-29T10:56:25.846Z,46.10
2018-05-29T10:58:52.563Z,46.70
2018-05-29T11:01:20.156Z,45.90
2018-05-29T11:03:47.108Z,45.90
2018-05-29T11:06:14.062Z,46.00
2018-05-29T11:08:41.009Z,47.10
2018-05-29T11:11:07.857Z,46.60
2018-05-29T11:13:34.813Z,48.10
2018-05-29T11:16:01.762Z,48.60
2018-05-29T11:18:28.716Z,48.10
2018-05-29T11:20:55.664Z,47.90
2018-05-29T11:23:22.409Z,48.80
2018-05-29T11:25:50.180Z,46.90
2018-05-29T11:28:17.129Z,46.90
2018-05-29T11:30:44.081Z,47.90
2018-05-29T11:33:11.234Z,48.50
2018-05-29T11:35:38.188Z,47.70
2018-05-29T11:38:05.351Z,49.00
2018-05-29T11:40:33.009Z,48.10
2018-05-29T11:43:00.062Z,48.20
2018-05-29T11:45:26.910Z,48.10
2018-05-29T11:47:53.759Z,48.00
2018-05-29T11:50:20.645Z,48.50
2018-05-29T11:52:49.300Z,48.40
2018-05-29T11:55:16.148Z,48.50
2018-05-29T11:57:43.105Z,47.70
2018-05-29T12:00:10.049Z,49.30
2018-05-29T12:02:36.899Z,48.30
2018-05-29T12:05:03.854Z,47.40
2018-05-29T12:07:31.108Z,49.40
2018-05-29T12:09:57.956Z,48.10
2018-05-29T12:12:24.908Z,48.00
2018-05-29T12:14:51.754Z,48.50
2018-05-29T12:17:18.616Z,47.90
2018-05-29T12:19:45.555Z,49.10
2018-05-29T12:22:12.407Z,48.00
2018-05-29T12:24:39.354Z,48.40
2018-05-29T12:27:06.509Z,49.30
2018-05-29T12:29:33.464Z,50.60
2018-05-29T12:32:00.413Z,47.90
2018-05-29T12:34:27.365Z,48.10
2018-05-29T12:36:55.032Z,47.30
2018-05-29T12:39:21.880Z,47.30
2018-05-29T12:41:48.831Z,47.50
2018-05-29T12:44:15.680Z,47.60
2018-05-29T12:46:42.631Z,47.60
2018-05-29T12:49:09.579Z,49.80
2018-05-29T12:51:36.738Z,48.50
2018-05-29T12:54:03.690Z,48.40
2018-05-29T12:56:30.540Z,49.50
2018-05-29T12:58:57.489Z,48.80
2018-05-29T13:01:24.437Z,49.90
2018-05-29T13:03:51.388Z,50.10
2018-05-29T13:06:18.342Z,49.50
2018-05-29T13:08:45.292Z,48.90
2018-05-29T13:11:12.157Z,49.50
2018-05-29T13:13:39.095Z,47.90
2018-05-29T13:16:05.941Z,47.50
2018-05-29T13:18:32.890Z,49.70
2018-05-29T13:20:59.843Z,47.80
2018-05-29T13:23:26.691Z,48.80
2018-05-29T13:25:53.539Z,48.20
2018-05-29T13:28:21.205Z,50.10
2018-05-29T13:30:48.157Z,50.00
2018-05-29T13:33:15.108Z,48.10
2018-05-29T13:35:42.262Z,48.10
2018-05-29T13:38:09.215Z,48.70
2018-05-29T13:40:36.163Z,49.20
2018-05-29T13:43:03.012Z,49.30
2018-05-29T13:45:29.965Z,49.10
2018-05-29T13:47:56.812Z,49.60
2018-05-29T13:50:23.662Z,48.60
2018-05-29T13:52:50.611Z,49.40
2018-05-29T13:55:17.563Z,48.70
2018-05-29T13:57:44.516Z,47.60
2018-05-29T14:00:11.467Z,48.60
2018-05-29T14:02:38.418Z,49.10
2018-05-29T14:05:05.252Z,49.50
2018-05-29T14:07:32.013Z,49.80
2018-05-29T14:09:58.968Z,49.60
2018-05-29T14:12:25.707Z,50.10
2018-05-29T14:14:53.109Z,50.30
2018-05-29T14:17:20.326Z,49.00
2018-05-29T14:19:47.181Z,50.50
2018-05-29T14:22:14.025Z,50.30
2018-05-29T14:24:40.769Z,49.80
2018-05-29T14:27:07.722Z,48.80
2018-05-29T14:29:35.388Z,50.70
2018-05-29T14:32:02.345Z,50.60
2018-05-29T14:34:30.418Z,49.90
2018-05-29T14:36:57.264Z,50.00
2018-05-29T14:39:24.011Z,50.60
2018-05-29T14:41:50.964Z,50.30
2018-05-29T14:44:17.882Z,50.90
2018-05-29T14:46:44.658Z,51.40
2018-05-29T14:49:11.612Z,51.00
2018-05-29T14:51:38.463Z,51.00
2018-05-29T14:54:06.638Z,50.30
2018-05-29T14:56:33.485Z,51.20
2018-05-29T14:59:00.439Z,50.80
2018-05-29T15:01:27.391Z,51.90
2018-05-29T15:03:54.236Z,51.60
2018-05-29T15:06:21.187Z,51.00
2018-05-29T15:08:48.141Z,50.50
2018-05-29T15:11:15.196Z,50.50
2018-05-29T15:13:42.042Z,50.60
2018-05-29T15:16:08.993Z,51.40
2018-05-29T15:18:36.219Z,50.50
2018-05-29T15:21:04.533Z,51.00
2018-05-29T15:23:31.484Z,50.90
2018-05-29T15:25:58.433Z,50.90
2018-05-29T15:28:25.387Z,51.70
2018-05-29T15:30:52.908Z,50.60
2018-05-29T15:33:20.651Z,51.00
2018-05-29T15:35:47.465Z,51.00
2018-05-29T15:38:14.416Z,51.50
2018-05-29T15:40:41.296Z,51.60
2018-05-29T15:43:08.114Z,51.70
2018-05-29T15:45:35.474Z,52.50
2018-05-29T15:48:02.426Z,52.00
2018-05-29T15:50:29.376Z,51.70
2018-05-29T15:52:56.120Z,51.90
2018-05-29T15:55:23.072Z,51.80
2018-05-29T15:57:49.960Z,52.20
2018-05-29T16:00:16.975Z,52.50
2018-05-29T16:02:43.720Z,52.80
2018-05-29T16:05:10.670Z,52.10
2018-05-29T16:07:37.829Z,52.60
2018-05-29T16:10:05.525Z,52.60
2018-05-29T16:12:32.761Z,52.60
2018-05-29T16:15:00.422Z,52.40
2018-05-29T16:17:27.370Z,53.00
2018-05-29T16:19:54.324Z,53.50
2018-05-29T16:22:22.502Z,52.80
2018-05-29T16:24:49.455Z,53.00
2018-05-29T16:27:16.606Z,53.90
2018-05-29T16:29:43.561Z,53.10
2018-05-29T16:32:11.023Z,53.20
2018-05-29T16:34:37.977Z,53.30
2018-05-29T16:37:05.544Z,54.00
2018-05-29T16:39:32.489Z,53.60
2018-05-29T16:41:59.438Z,53.70
2018-05-29T16:44:26.801Z,53.60
2018-05-29T16:46:53.647Z,53.90
2018-05-29T16:49:20.601Z,54.20
2018-05-29T16:51:47.753Z,54.40
2018-05-29T16:54:14.500Z,54.40
2018-05-29T16:56:42.069Z,54.60
2018-05-29T16:59:09.019Z,54.30
2018-05-29T17:01:35.864Z,54.30
2018-05-29T17:04:02.816Z,54.40
2018-05-29T17:06:29.561Z,55.20
2018-05-29T17:08:56.514Z,54.80
2018-05-29T17:11:23.474Z,54.80
2018-05-29T17:13:50.416Z,55.00
2018-05-29T17:16:17.161Z,55.30
2018-05-29T17:18:43.907Z,55.40
2018-05-29T17:21:10.858Z,55.50
2018-05-29T17:23:37.814Z,55.90
2018-05-29T17:26:04.665Z,55.80
2018-05-29T17:28:31.508Z,56.30
2018-05-29T17:30:58.357Z,56.30
2018-05-29T17:33:26.022Z,56.40
2018-05-29T17:35:52.976Z,56.40
2018-05-29T17:38:19.943Z,56.60
2018-05-29T17:40:46.894Z,56.80
2018-05-29T17:43:13.830Z,57.00
2018-05-29T17:45:40.781Z,56.70
2018-05-29T17:48:07.526Z,57.00
2018-05-29T17:50:34.480Z,57.10
2018-05-29T17:53:01.327Z,57.70
2018-05-29T17:55:28.482Z,58.00
2018-05-29T17:57:55.328Z,58.20
2018-05-29T18:00:22.280Z,58.60
2018-05-29T18:02:49.436Z,59.50
2018-05-29T18:05:16.290Z,58.90
2018-05-29T18:07:43.239Z,59.60
2018-05-29T18:10:10.084Z,59.80
2018-05-29T18:12:37.034Z,61.30
2018-05-29T18:15:03.987Z,61.60
2018-05-29T18:17:30.937Z,62.10
2018-05-29T18:19:57.790Z,62.40
2018-05-29T18:22:24.529Z,63.00
2018-05-29T18:24:51.384Z,63.70
2018-05-29T18:27:18.332Z,64.00
2018-05-29T18:29:45.179Z,64.40
2018-05-29T18:32:12.443Z,64.90
2018-05-29T18:34:40.104Z,67.00
2018-05-29T18:37:07.159Z,67.00
2018-05-29T18:39:34.108Z,68.00
2018-05-29T18:42:01.573Z,67.30
2018-05-29T18:44:28.578Z,68.30
2018-05-29T18:46:55.475Z,68.10
2018-05-29T18:49:22.324Z,69.90
2018-05-29T18:51:56.232Z,71.80
2018-05-29T18:54:23.183Z,72.70
2018-05-29T18:56:50.031Z,72.60
2018-05-29T18:59:17.086Z,71.20
2018-05-29T19:01:44.036Z,70.80
2018-05-29T19:04:11.295Z,71.60
2018-05-29T19:06:38.552Z,72.10
2018-05-29T19:09:05.402Z,73.30
2018-05-29T19:11:32.248Z,75.20
2018-05-29T19:13:59.303Z,75.80
2018-05-29T19:16:26.151Z,75.80
2018-05-29T19:18:53.102Z,75.60
2018-05-29T19:21:19.847Z,76.00
2018-05-29T19:23:46.797Z,77.20
2018-05-29T19:26:13.544Z,79.10
2018-05-29T19:28:40.395Z,79.30
2018-05-29T19:31:07.241Z,80.60
2018-05-29T19:33:33.989Z,82.20
2018-05-29T19:36:01.657Z,81.00
2018-05-29T19:38:28.504Z,81.10
2018-05-29T19:40:55.455Z,80.80
2018-05-29T19:43:22.316Z,81.30
2018-05-29T19:45:49.254Z,80.90
2018-05-29T19:48:16.515Z,81.30
2018-05-29T19:50:43.259Z,83.50
2018-05-29T19:53:10.516Z,84.10
2018-05-29T19:55:37.468Z,83.90
2018-05-29T19:58:04.317Z,84.10
2018-05-29T20:00:31.575Z,84.70
2018-05-29T20:02:59.138Z,86.20
2018-05-29T20:05:25.989Z,86.20
2018-05-29T20:07:52.939Z,87.50
2018-05-29T20:10:20.301Z,87.40
2018-05-29T20:12:47.366Z,88.50
2018-05-29T20:15:14.918Z,91.50
2018-05-29T20:17:42.074Z,91.50
2018-05-29T20:20:08.993Z,91.00
2018-05-29T20:22:36.077Z,92.30
2018-05-29T20:25:03.335Z,92.80
2018-05-29T20:27:30.188Z,92.90
2018-05-29T20:29:58.161Z,92.70
2018-05-29T20:32:25.013Z,94.90
2018-05-29T20:34:52.276Z,96.20
2018-05-29T20:37:20.037Z,95.60
2018-05-29T20:39:46.883Z,95.70
2018-05-29T20:42:14.245Z,95.40
2018-05-29T20:44:41.092Z,97.50
2018-05-29T20:47:08.047Z,98.70
2018-05-29T20:49:34.895Z,99.30
2018-05-29T20:52:01.948Z,99.90
2018-05-29T20:54:28.898Z,99.90
2018-05-29T20:56:55.848Z,99.90
2018-05-29T20:59:22.696Z,99.90
2018-05-29T21:01:49.854Z,99.90
2018-05-29T21:04:17.109Z,99.90
2018-05-29T21:06:43.958Z,99.90
2018-05-29T21:09:10.809Z,99.90
2018-05-29T21:11:37.964Z,99.90
2018-05-29T21:14:05.016Z,99.90
2018-05-29T21:16:31.867Z,99.90
2018-05-29T21:18:58.817Z,99.90
2018-05-29T21:21:26.073Z,99.90
2018-05-29T21:23:53.025Z,99.90
2018-05-29T21:26:19.771Z,99.90
2018-05-29T21:28:46.724Z,99.90
2018-05-29T21:31:14.085Z,99.90
2018-05-29T21:33:41.343Z,99.90
2018-05-29T21:36:09.012Z,99.90
2018-05-29T21:38:36.779Z,99.90
2018-05-29T21:41:03.626Z,99.90
2018-05-29T21:43:30.372Z,99.90
2018-05-29T21:45:57.324Z,99.90
2018-05-29T21:48:25.196Z,99.90
2018-05-29T21:50:52.044Z,99.90
2018-05-29T21:53:18.997Z,99.90
2018-05-29T21:55:45.947Z,99.90
2018-05-29T21:58:12.900Z,99.90
2018-05-29T22:00:39.856Z,99.90
2018-05-29T22:03:06.802Z,99.90
2018-05-29T22:05:33.649Z,99.90
2018-05-29T22:08:01.543Z,99.90
2018-05-29T22:10:30.827Z,99.90
2018-05-29T22:12:57.570Z,99.90
2018-05-29T22:15:24.421Z,99.90
2018-05-29T22:17:51.268Z,99.90
2018-05-29T22:20:18.218Z,99.90
2018-05-29T22:22:45.580Z,99.90
2018-05-29T22:25:12.532Z,99.90
2018-05-29T22:27:39.278Z,99.90
2018-05-29T22:30:06.125Z,99.90
2018-05-29T22:32:32.974Z,99.90
2018-05-29T22:34:59.720Z,99.90
2018-05-29T22:37:26.572Z,99.90
2018-05-29T22:39:54.339Z,99.90
2018-05-29T22:42:21.290Z,99.90
2018-05-29T22:44:48.446Z,99.90
2018-05-29T22:47:15.398Z,99.90
2018-05-29T22:49:42.247Z,99.90
2018-05-29T22:52:09.197Z,99.90
2018-05-29T22:54:36.046Z,99.90
2018-05-29T22:57:02.997Z,99.90
2018-05-29T22:59:29.947Z,99.90
2018-05-29T23:01:56.899Z,99.90
2018-05-29T23:04:23.850Z,99.90
2018-05-29T23:06:50.596Z,99.90
2018-05-29T23:09:17.444Z,99.90
2018-05-29T23:11:44.293Z,99.90
2018-05-29T23:14:11.250Z,99.90
2018-05-29T23:16:38.196Z,99.90
2018-05-29T23:19:05.045Z,99.90
2018-05-29T23:21:32.198Z,99.90
2018-05-29T23:23:59.866Z,99.90
2018-05-29T23:26:26.816Z,99.90
2018-05-29T23:28:53.666Z,99.90
2018-05-29T23:31:20.515Z,99.90
2018-05-29T23:33:47.363Z,99.90
2018-05-29T23:36:14.111Z,99.90
2018-05-29T23:38:41.367Z,99.90
2018-05-29T23:41:08.422Z,99.90
2018-05-29T23:43:35.576Z,99.90
2018-05-29T23:46:02.528Z,99.90
2018-05-29T23:48:29.272Z,99.90
2018-05-29T23:50:56.124Z,99.90
2018-05-29T23:53:30.235Z,99.90
2018-05-29T23:55:57.087Z,99.90
2018-05-29T23:58:24.037Z,99.90
